createdAt,value
2023-03-26T00:01:36.775Z,98450.06
2023-03-26T00:04:06.676Z,98462.03
2023-03-26T00:06:39.626Z,98463.75
2023-03-26T00:09:10.873Z,98459.44
2023-03-26T00:11:37.966Z,98458.63
2023-03-26T00:14:05.537Z,98466.28
2023-03-26T00:16:33.116Z,98472.31
2023-03-26T00:19:01.708Z,98480.84
2023-03-26T00:21:30.720Z,98474.09
2023-03-26T00:24:00.863Z,98492.88
2023-03-26T00:26:31.045Z,98492.94
2023-03-26T00:29:00.223Z,98492.97
2023-03-26T00:31:27.505Z,98487.03
2023-03-26T00:33:55.613Z,98487.94
2023-03-26T00:36:25.748Z,98493.09
2023-03-26T00:38:53.813Z,98479.47
2023-03-26T00:41:25.768Z,98487.16
2023-03-26T00:43:59.533Z,98472.66
2023-03-26T00:46:29.475Z,98482.06
2023-03-26T00:48:58.878Z,98488.03
2023-03-26T00:51:27.791Z,98491.44
2023-03-26T00:53:55.580Z,98494.84
2023-03-26T00:56:22.521Z,98491.44
2023-03-26T00:58:50.231Z,98491.44
2023-03-26T01:01:27.714Z,98488.84
2023-03-26T01:04:08.314Z,98490.53
2023-03-26T01:06:41.869Z,98487.97
2023-03-26T01:09:21.439Z,98497.38
2023-03-26T01:11:49.640Z,98489.66
2023-03-26T01:14:19.671Z,98482.81
2023-03-26T01:16:55.138Z,98484.47
2023-03-26T01:20:11.832Z,98487.91
2023-03-26T01:22:46.043Z,98495.56
2023-03-26T01:25:14.245Z,98493.84
2023-03-26T01:27:55.914Z,98491.28
2023-03-26T01:31:01.393Z,98493.88
2023-03-26T01:33:45.533Z,98490.44
2023-03-26T01:36:36.663Z,98495.56
2023-03-26T01:39:27.938Z,98484.47
2023-03-26T01:42:02.885Z,98489.59
2023-03-26T01:44:44.861Z,98487.06
2023-03-26T01:47:13.363Z,98487.91
2023-03-26T01:49:40.373Z,98481.06
2023-03-26T01:52:17.372Z,98480.19
2023-03-26T01:54:46.634Z,98487.91
2023-03-26T01:57:24.210Z,98484.47
2023-03-26T02:00:16.306Z,98482.75
2023-03-26T02:02:59.212Z,98475.06
2023-03-26T02:05:56.692Z,98467.41
2023-03-26T02:08:35.834Z,98467.41
2023-03-26T02:11:13.234Z,98457.16
2023-03-26T02:13:44.092Z,98452.91
2023-03-26T02:16:16.539Z,98456.28
2023-03-26T02:18:45.767Z,98454.63
2023-03-26T02:21:20.255Z,98452.91
2023-03-26T02:24:03.334Z,98454.63
2023-03-26T02:26:35.721Z,98446.03
2023-03-26T02:29:14.323Z,98453.72
2023-03-26T02:31:44.641Z,98450.31
2023-03-26T02:34:11.584Z,98444.34
2023-03-26T02:36:43.033Z,98442.63
2023-03-26T02:39:11.953Z,98437.53
2023-03-26T02:41:39.131Z,98435.81
2023-03-26T02:44:09.507Z,98436.66
2023-03-26T02:47:11.742Z,98438.34
2023-03-26T02:49:53.768Z,98439.16
2023-03-26T02:52:49.806Z,98441.72
2023-03-26T02:55:17.429Z,98438.34
2023-03-26T02:57:45.686Z,98438.31
2023-03-26T03:00:18.617Z,98424.63
2023-03-26T03:02:47.976Z,98427.22
2023-03-26T03:05:21.024Z,98430.63
2023-03-26T03:07:58.000Z,98424.66
2023-03-26T03:10:28.165Z,98428.91
2023-03-26T03:13:18.501Z,98422.97
2023-03-26T03:15:45.613Z,98427.22
2023-03-26T03:18:12.424Z,98426.31
2023-03-26T03:20:39.296Z,98422.91
2023-03-26T03:23:06.287Z,98416.13
2023-03-26T03:25:33.752Z,98420.41
2023-03-26T03:28:01.285Z,98417.84
2023-03-26T03:30:28.294Z,98421.25
2023-03-26T03:33:24.098Z,98423.81
2023-03-26T03:35:51.138Z,98424.63
2023-03-26T03:38:19.256Z,98416.16
2023-03-26T03:40:49.689Z,98417.84
2023-03-26T03:43:17.190Z,98419.56
2023-03-26T03:46:04.634Z,98417.00
2023-03-26T03:48:38.199Z,98415.28
2023-03-26T03:51:06.829Z,98410.13
2023-03-26T03:53:57.510Z,98416.13
2023-03-26T03:57:02.200Z,98411.03
2023-03-26T03:59:29.120Z,98412.69
2023-03-26T04:01:56.338Z,98407.50
2023-03-26T04:04:32.920Z,98404.09
2023-03-26T04:07:02.356Z,98404.09
2023-03-26T04:09:40.321Z,98396.44
2023-03-26T04:12:14.197Z,98399.00
2023-03-26T04:14:51.666Z,98398.16
2023-03-26T04:17:23.707Z,98400.69
2023-03-26T04:19:54.954Z,98399.88
2023-03-26T04:22:36.403Z,98400.69
2023-03-26T04:25:07.615Z,98396.44
2023-03-26T04:27:46.184Z,98381.94
2023-03-26T04:30:24.765Z,98381.97
2023-03-26T04:33:06.301Z,98381.13
2023-03-26T04:35:37.577Z,98370.00
2023-03-26T04:38:07.316Z,98372.50
2023-03-26T04:40:39.599Z,98373.38
2023-03-26T04:43:24.910Z,98370.81
2023-03-26T04:46:13.200Z,98369.16
2023-03-26T04:48:50.607Z,98370.00
2023-03-26T04:51:20.129Z,98366.53
2023-03-26T04:54:00.354Z,98366.53
2023-03-26T04:56:39.550Z,98367.38
2023-03-26T04:59:35.287Z,98371.66
2023-03-26T05:02:06.528Z,98360.53
2023-03-26T05:04:46.022Z,98355.38
2023-03-26T05:07:20.005Z,98355.34
2023-03-26T05:09:52.943Z,98356.13
2023-03-26T05:12:25.847Z,98350.19
2023-03-26T05:15:15.331Z,98345.09
2023-03-26T05:18:04.647Z,98348.47
2023-03-26T05:20:43.573Z,98346.81
2023-03-26T05:23:10.892Z,98345.94
2023-03-26T05:25:41.618Z,98343.38
2023-03-26T05:28:24.226Z,98338.25
2023-03-26T05:30:58.582Z,98335.69
2023-03-26T05:33:28.772Z,98334.03
2023-03-26T05:36:15.593Z,98332.28
2023-03-26T05:38:47.756Z,98328.88
2023-03-26T05:41:19.531Z,98335.63
2023-03-26T05:43:48.943Z,98328.81
2023-03-26T05:46:21.963Z,98324.66
2023-03-26T05:48:49.920Z,98325.41
2023-03-26T05:51:16.970Z,98326.25
2023-03-26T05:53:54.944Z,98315.97
2023-03-26T05:56:48.002Z,98309.13
2023-03-26T05:59:53.742Z,98310.03
2023-03-26T06:02:50.627Z,98302.22
2023-03-26T06:05:23.884Z,98314.16
2023-03-26T06:08:00.819Z,98307.31
2023-03-26T06:10:39.373Z,98293.56
2023-03-26T06:13:06.412Z,98301.28
2023-03-26T06:15:36.235Z,98294.41
2023-03-26T06:18:23.998Z,98301.19
2023-03-26T06:21:09.505Z,98298.66
2023-03-26T06:23:56.077Z,98294.31
2023-03-26T06:26:43.187Z,98296.84
2023-03-26T06:29:34.860Z,98298.56
2023-03-26T06:32:20.105Z,98288.38
2023-03-26T06:34:57.740Z,98289.19
2023-03-26T06:37:24.632Z,98290.84
2023-03-26T06:39:57.131Z,98294.19
2023-03-26T06:43:09.397Z,98290.72
2023-03-26T06:45:51.940Z,98294.06
2023-03-26T06:48:37.811Z,98282.91
2023-03-26T06:51:23.055Z,98282.78
2023-03-26T06:54:08.319Z,98277.59
2023-03-26T06:56:45.006Z,98280.91
2023-03-26T06:59:35.348Z,98280.78
2023-03-26T07:02:37.645Z,98279.09
2023-03-26T07:05:23.402Z,98277.34
2023-03-26T07:08:09.179Z,98276.50
2023-03-26T07:10:55.055Z,98276.44
2023-03-26T07:13:42.364Z,98261.03
2023-03-26T07:16:27.871Z,98267.78
2023-03-26T07:18:57.468Z,98266.00
2023-03-26T07:21:30.421Z,98265.88
2023-03-26T07:23:57.789Z,98247.00
2023-03-26T07:27:03.966Z,98249.38
2023-03-26T07:30:46.525Z,98233.84
2023-03-26T07:33:58.766Z,98231.00
2023-03-26T07:36:53.657Z,98232.69
2023-03-26T07:39:58.071Z,98222.34
2023-03-26T07:43:41.178Z,98238.50
2023-03-26T07:46:14.241Z,98228.03
2023-03-26T07:48:54.108Z,98236.78
2023-03-26T07:51:39.685Z,98232.69
2023-03-26T07:54:11.984Z,98221.22
2023-03-26T07:57:03.528Z,98226.72
2023-03-26T07:59:45.062Z,98219.47
2023-03-26T08:03:05.896Z,98220.50
2023-03-26T08:06:07.992Z,98217.41
2023-03-26T08:09:28.709Z,98228.38
2023-03-26T08:12:17.639Z,98223.31
2023-03-26T08:15:22.052Z,98229.31
2023-03-26T08:17:57.781Z,98227.56
2023-03-26T08:21:17.738Z,98225.47
2023-03-26T08:24:08.001Z,98216.56
2023-03-26T08:26:49.068Z,98221.47
2023-03-26T08:29:32.914Z,98221.66
2023-03-26T08:32:01.861Z,98217.63
2023-03-26T08:34:28.793Z,98217.97
2023-03-26T08:36:55.711Z,98217.75
2023-03-26T08:39:22.734Z,98220.38
2023-03-26T08:41:55.202Z,98208.06
2023-03-26T08:44:49.581Z,98207.59
2023-03-26T08:48:06.621Z,98196.03
2023-03-26T08:50:58.227Z,98200.53
2023-03-26T08:54:03.356Z,98184.06
2023-03-26T08:57:04.566Z,98193.00
2023-03-26T08:59:42.299Z,98184.44
2023-03-26T09:02:27.167Z,98177.28
2023-03-26T09:05:52.612Z,98178.47
2023-03-26T09:08:31.564Z,98181.81
2023-03-26T09:11:20.310Z,98185.56
2023-03-26T09:14:08.991Z,98179.13
2023-03-26T09:17:28.804Z,98175.38
2023-03-26T09:20:35.175Z,98169.09
2023-03-26T09:23:34.772Z,98164.38
2023-03-26T09:26:29.787Z,98156.31
2023-03-26T09:29:35.012Z,98163.44
2023-03-26T09:32:39.346Z,98160.16
2023-03-26T09:35:18.101Z,98157.22
2023-03-26T09:38:11.243Z,98154.22
2023-03-26T09:41:09.816Z,98152.25
2023-03-26T09:44:13.881Z,98155.22
2023-03-26T09:46:56.235Z,98147.94
2023-03-26T09:49:41.208Z,98139.78
2023-03-26T09:52:46.547Z,98143.16
2023-03-26T09:55:30.306Z,98143.66
2023-03-26T09:58:26.073Z,98144.59
2023-03-26T10:01:22.288Z,98139.44
2023-03-26T10:04:10.499Z,98140.72
2023-03-26T10:07:01.360Z,98137.25
2023-03-26T10:10:12.707Z,98135.25
2023-03-26T10:12:45.722Z,98130.25
2023-03-26T10:15:54.377Z,98131.22
2023-03-26T10:18:30.009Z,98135.81
2023-03-26T10:21:28.505Z,98129.25
2023-03-26T10:24:21.073Z,98134.41
2023-03-26T10:27:10.386Z,98136.16
2023-03-26T10:30:20.632Z,98125.38
2023-03-26T10:33:08.064Z,98130.16
2023-03-26T10:35:53.079Z,98134.34
2023-03-26T10:39:37.203Z,98131.09
2023-03-26T10:42:21.746Z,98140.81
2023-03-26T10:45:25.577Z,98143.88
2023-03-26T10:48:03.091Z,98143.44
2023-03-26T10:51:06.587Z,98143.69
2023-03-26T10:53:56.044Z,98146.53
2023-03-26T10:56:40.041Z,98153.19
2023-03-26T10:59:12.963Z,98151.16
2023-03-26T11:01:54.745Z,98140.91
2023-03-26T11:04:54.457Z,98141.59
2023-03-26T11:07:27.033Z,98140.06
2023-03-26T11:10:19.462Z,98143.47
2023-03-26T11:13:08.934Z,98133.09
2023-03-26T11:16:00.314Z,98136.59
2023-03-26T11:18:32.701Z,98134.88
2023-03-26T11:21:19.854Z,98134.94
2023-03-26T11:24:06.509Z,98136.09
2023-03-26T11:27:14.486Z,98134.56
2023-03-26T11:30:14.847Z,98130.19
2023-03-26T11:32:48.301Z,98137.91
2023-03-26T11:35:40.667Z,98135.09
2023-03-26T11:38:26.397Z,98131.59
2023-03-26T11:40:57.348Z,98132.16
2023-03-26T11:43:49.676Z,98122.41
2023-03-26T11:46:20.987Z,98123.28
2023-03-26T11:48:58.161Z,98125.66
2023-03-26T11:51:34.189Z,98124.72
2023-03-26T11:54:07.852Z,98118.69
2023-03-26T11:57:05.174Z,98124.72
2023-03-26T11:59:55.639Z,98117.00
2023-03-26T12:02:37.784Z,98113.44
2023-03-26T12:05:26.546Z,98120.00
2023-03-26T12:07:59.745Z,98116.75
2023-03-26T12:10:39.414Z,98112.19
2023-03-26T12:13:44.751Z,98116.25
2023-03-26T12:16:19.358Z,98114.09
2023-03-26T12:19:03.865Z,98110.06
2023-03-26T12:21:46.566Z,98117.69
2023-03-26T12:24:35.206Z,98107.22
2023-03-26T12:27:24.902Z,98114.03
2023-03-26T12:30:00.402Z,98104.66
2023-03-26T12:32:45.147Z,98102.69
2023-03-26T12:35:30.158Z,98105.09
2023-03-26T12:38:23.482Z,98102.47
2023-03-26T12:44:44.671Z,98105.91
2023-03-26T12:44:52.934Z,98106.16
2023-03-26T12:47:57.154Z,98098.69
2023-03-26T12:50:16.003Z,98104.81
2023-03-26T12:52:49.486Z,98108.28
2023-03-26T12:55:42.390Z,98105.53
2023-03-26T12:58:51.353Z,98101.97
2023-03-26T13:02:05.929Z,98102.50
2023-03-26T13:05:05.635Z,98102.94
2023-03-26T13:07:51.585Z,98102.41
2023-03-26T13:10:50.775Z,98093.50
2023-03-26T13:13:38.627Z,98090.72
2023-03-26T13:16:42.542Z,98089.00
2023-03-26T13:19:43.980Z,98095.81
2023-03-26T13:22:46.180Z,98088.94
2023-03-26T13:25:31.513Z,98093.81
2023-03-26T13:28:26.260Z,98093.00
2023-03-26T13:31:02.262Z,98090.41
2023-03-26T13:33:44.808Z,98090.41
2023-03-26T13:36:43.351Z,98084.03
2023-03-26T13:39:49.980Z,98083.94
2023-03-26T13:42:55.084Z,98080.03
2023-03-26T13:45:56.337Z,98082.22
2023-03-26T13:48:30.261Z,98076.13
2023-03-26T13:51:40.683Z,98077.44
2023-03-26T13:54:14.190Z,98072.31
2023-03-26T13:56:50.499Z,98074.00
2023-03-26T14:00:10.087Z,98070.59
2023-03-26T14:02:45.541Z,98075.56
2023-03-26T14:05:38.868Z,98077.09
2023-03-26T14:08:37.834Z,98082.31
2023-03-26T14:11:11.651Z,98073.66
2023-03-26T14:13:51.935Z,98077.47
2023-03-26T14:16:29.455Z,98075.22
2023-03-26T14:19:30.883Z,98070.13
2023-03-26T14:22:16.016Z,98076.19
2023-03-26T14:25:08.244Z,98075.78
2023-03-26T14:28:19.565Z,98074.81
2023-03-26T14:31:14.111Z,98073.31
2023-03-26T14:34:22.572Z,98073.38
2023-03-26T14:36:59.107Z,98070.31
2023-03-26T14:40:07.997Z,98073.59
2023-03-26T14:42:43.064Z,98069.41
2023-03-26T14:45:41.669Z,98065.16
2023-03-26T14:49:02.240Z,98066.81
2023-03-26T14:51:42.337Z,98066.34
2023-03-26T14:54:15.986Z,98060.13
2023-03-26T14:57:44.561Z,98072.53
2023-03-26T15:01:03.908Z,98070.06
2023-03-26T15:03:38.811Z,98068.22
2023-03-26T15:06:30.200Z,98068.50
2023-03-26T15:09:40.378Z,98072.25
2023-03-26T15:12:33.260Z,98079.53
2023-03-26T15:16:08.992Z,98076.22
2023-03-26T15:19:14.356Z,98077.72
2023-03-26T15:21:47.282Z,98077.78
2023-03-26T15:24:35.309Z,98077.94
2023-03-26T15:27:17.215Z,98079.63
2023-03-26T15:30:26.970Z,98081.28
2023-03-26T15:33:45.001Z,98074.16
2023-03-26T15:36:58.774Z,98079.56
2023-03-26T15:39:59.459Z,98079.38
2023-03-26T15:42:36.093Z,98083.97
2023-03-26T15:45:26.538Z,98082.63
2023-03-26T15:48:01.229Z,98085.41
2023-03-26T15:50:54.755Z,98083.72
2023-03-26T15:54:04.832Z,98092.13
2023-03-26T15:57:16.745Z,98092.78
2023-03-26T16:00:15.393Z,98092.09
2023-03-26T16:03:09.278Z,98102.59
2023-03-26T16:06:02.156Z,98104.38
2023-03-26T16:08:53.069Z,98115.47
2023-03-26T16:11:49.759Z,98109.31
2023-03-26T16:14:41.488Z,98114.44
2023-03-26T16:17:23.342Z,98120.63
2023-03-26T16:20:32.634Z,98122.38
2023-03-26T16:23:04.561Z,98123.22
2023-03-26T16:26:41.270Z,98127.56
2023-03-26T16:29:14.380Z,98129.28
2023-03-26T16:32:12.273Z,98140.38
2023-03-26T16:35:00.233Z,98139.69
2023-03-26T16:37:43.887Z,98144.13
2023-03-26T16:40:16.797Z,98145.03
2023-03-26T16:42:54.530Z,98146.00
2023-03-26T16:45:54.684Z,98149.44
2023-03-26T16:48:39.496Z,98149.50
2023-03-26T16:51:26.191Z,98158.06
2023-03-26T16:54:23.666Z,98158.09
2023-03-26T16:57:30.694Z,98162.44
2023-03-26T17:00:13.874Z,98165.09
2023-03-26T17:03:37.720Z,98170.22
2023-03-26T17:06:47.891Z,98178.78
2023-03-26T17:09:44.065Z,98185.53
2023-03-26T17:12:44.387Z,98182.97
2023-03-26T17:15:36.402Z,98189.81
2023-03-26T17:18:18.635Z,98199.25
2023-03-26T17:21:01.055Z,98200.94
2023-03-26T17:23:54.413Z,98211.25
2023-03-26T17:26:28.840Z,98207.91
2023-03-26T17:29:31.550Z,98224.13
2023-03-26T17:32:11.530Z,98218.25
2023-03-26T17:34:38.383Z,98225.22
2023-03-26T17:37:11.879Z,98229.47
2023-03-26T17:39:38.640Z,98230.34
2023-03-26T17:42:32.985Z,98249.16
2023-03-26T17:45:28.929Z,98246.63
2023-03-26T17:48:20.542Z,98252.63
2023-03-26T17:50:55.399Z,98254.44
2023-03-26T17:53:31.328Z,98257.91
2023-03-26T17:56:03.896Z,98267.22
2023-03-26T17:58:50.364Z,98271.53
2023-03-26T18:01:33.845Z,98269.84
2023-03-26T18:04:05.987Z,98280.16
2023-03-26T18:06:32.739Z,98278.44
2023-03-26T18:09:09.830Z,98285.25
2023-03-26T18:12:16.357Z,98291.25
2023-03-26T18:15:01.130Z,98298.91
2023-03-26T18:17:39.319Z,98304.91
2023-03-26T18:20:07.345Z,98303.22
2023-03-26T18:22:34.767Z,98309.19
2023-03-26T18:25:04.068Z,98315.97
2023-03-26T18:27:40.338Z,98321.13
2023-03-26T18:30:23.428Z,98319.38
2023-03-26T18:33:01.374Z,98317.66
2023-03-26T18:35:42.202Z,98323.66
2023-03-26T18:38:19.382Z,98323.66
2023-03-26T18:41:06.193Z,98327.06
2023-03-26T18:43:35.729Z,98324.56
2023-03-26T18:46:14.428Z,98334.81
2023-03-26T18:48:41.873Z,98327.97
2023-03-26T18:51:08.913Z,98339.91
2023-03-26T18:53:41.199Z,98348.44
2023-03-26T18:56:27.366Z,98352.72
2023-03-26T18:58:59.039Z,98352.69
2023-03-26T19:01:32.288Z,98357.81
2023-03-26T19:04:04.865Z,98355.25
2023-03-26T19:06:38.337Z,98363.78
2023-03-26T19:09:23.777Z,98370.59
2023-03-26T19:12:14.275Z,98369.75
2023-03-26T19:15:12.676Z,98373.13
2023-03-26T19:17:48.442Z,98379.09
2023-03-26T19:20:19.668Z,98380.81
2023-03-26T19:22:48.383Z,98383.34
2023-03-26T19:25:29.594Z,98387.63
2023-03-26T19:27:57.557Z,98397.84
2023-03-26T19:30:33.119Z,98392.72
2023-03-26T19:33:13.852Z,98402.09
2023-03-26T19:35:42.733Z,98408.03
2023-03-26T19:38:26.013Z,98413.97
2023-03-26T19:40:56.692Z,98410.56
2023-03-26T19:43:27.171Z,98423.31
2023-03-26T19:46:00.165Z,98425.00
2023-03-26T19:48:46.113Z,98431.75
2023-03-26T19:51:32.045Z,98433.44
2023-03-26T19:54:03.033Z,98435.09
2023-03-26T19:56:30.420Z,98438.50
2023-03-26T19:58:59.235Z,98441.00
2023-03-26T20:01:29.248Z,98442.72
2023-03-26T20:04:06.848Z,98445.19
2023-03-26T20:06:42.377Z,98457.09
2023-03-26T20:09:16.299Z,98461.34
2023-03-26T20:11:43.354Z,98467.25
2023-03-26T20:14:25.830Z,98464.69
2023-03-26T20:16:53.598Z,98475.72
2023-03-26T20:19:20.698Z,98470.63
2023-03-26T20:21:47.619Z,98478.22
2023-03-26T20:24:17.555Z,98480.81
2023-03-26T20:26:46.334Z,98486.72
2023-03-26T20:29:14.517Z,98488.41
2023-03-26T20:31:43.325Z,98494.38
2023-03-26T20:34:16.500Z,98498.56
2023-03-26T20:36:44.037Z,98505.25
2023-03-26T20:39:11.206Z,98513.72
2023-03-26T20:41:47.225Z,98507.75
2023-03-26T20:44:18.652Z,98523.88
2023-03-26T20:46:48.595Z,98528.88
2023-03-26T20:49:16.022Z,98523.66
2023-03-26T20:51:43.686Z,98524.41
2023-03-26T20:54:21.263Z,98539.56
2023-03-26T20:56:48.874Z,98538.56
2023-03-26T20:59:26.888Z,98538.47
2023-03-26T21:01:56.632Z,98540.03
2023-03-26T21:04:24.725Z,98550.91
2023-03-26T21:06:53.351Z,98562.84
2023-03-26T21:09:24.105Z,98564.44
2023-03-26T21:12:16.750Z,98566.00
2023-03-26T21:14:44.266Z,98567.59
2023-03-26T21:17:18.920Z,98573.59
2023-03-26T21:19:47.219Z,98576.00
2023-03-26T21:22:27.711Z,98582.69
2023-03-26T21:25:05.853Z,98593.63
2023-03-26T21:28:07.203Z,98590.13
2023-03-26T21:30:34.817Z,98601.00
2023-03-26T21:33:02.159Z,98601.81
2023-03-26T21:35:29.880Z,98608.50
2023-03-26T21:37:57.695Z,98609.34
2023-03-26T21:40:24.697Z,98607.69
2023-03-26T21:42:54.259Z,98616.94
2023-03-26T21:45:22.140Z,98619.44
2023-03-26T21:47:49.847Z,98626.19
2023-03-26T21:50:20.931Z,98621.91
2023-03-26T21:52:50.902Z,98620.88
2023-03-26T21:55:23.426Z,98626.81
2023-03-26T21:58:31.517Z,98632.69
2023-03-26T22:01:38.160Z,98636.00
2023-03-26T22:04:22.222Z,98638.53
2023-03-26T22:07:04.326Z,98642.09
2023-03-26T22:09:36.252Z,98651.44
2023-03-26T22:12:05.490Z,98644.53
2023-03-26T22:14:33.620Z,98654.81
2023-03-26T22:17:00.489Z,98653.03
2023-03-26T22:19:28.568Z,98658.91
2023-03-26T22:21:58.164Z,98665.69
2023-03-26T22:24:25.086Z,98672.47
2023-03-26T22:26:51.986Z,98675.06
2023-03-26T22:29:18.948Z,98675.94
2023-03-26T22:31:46.458Z,98688.63
2023-03-26T22:34:13.522Z,98685.25
2023-03-26T22:36:40.642Z,98695.56
2023-03-26T22:39:07.705Z,98698.97
2023-03-26T22:41:34.651Z,98700.72
2023-03-26T22:44:12.905Z,98694.97
2023-03-26T22:46:49.265Z,98711.06
2023-03-26T22:49:17.880Z,98712.84
2023-03-26T22:51:44.722Z,98726.34
2023-03-26T22:54:11.608Z,98730.53
2023-03-26T22:56:38.526Z,98736.38
2023-03-26T22:59:06.960Z,98746.78
2023-03-26T23:01:34.384Z,98739.78
2023-03-26T23:04:01.573Z,98748.34
2023-03-26T23:06:28.538Z,98740.78
2023-03-26T23:08:57.018Z,98748.28
2023-03-26T23:11:23.984Z,98749.22
2023-03-26T23:13:51.223Z,98761.00
2023-03-26T23:16:21.514Z,98772.06
2023-03-26T23:18:49.006Z,98771.16
2023-03-26T23:21:19.520Z,98778.66
2023-03-26T23:23:48.322Z,98780.53
2023-03-26T23:26:15.601Z,98790.50
2023-03-26T23:28:43.182Z,98786.31
2023-03-26T23:31:12.270Z,98792.16
2023-03-26T23:33:45.769Z,98802.31
2023-03-26T23:36:17.582Z,98800.47
2023-03-26T23:38:47.595Z,98809.81
2023-03-26T23:41:21.395Z,98809.75
2023-03-26T23:43:56.402Z,98820.66
2023-03-26T23:46:34.632Z,98822.34
2023-03-26T23:49:03.367Z,98831.69
2023-03-26T23:51:31.929Z,98841.78
2023-03-26T23:54:00.301Z,98844.47
2023-03-26T23:56:30.291Z,98854.59
2023-03-26T23:58:59.116Z,98855.53
